Terminal Aerodrome Forecast
Issued by NWS Charleston, SC

Home | Current Version | Previous Version | Text Only | Print | Product List | Glossary On
Versions: 1 2 3 4 5 6 7 8 9 10 11 12 13 14 15 16 17 18 19 20 21 22 23 24
000
FTUS42 KCHS 131100 AAA
TAFSAV
TAF AMD
KSAV 131151Z 1312/1412 VRB03KT P6SM VCSH SCT020 BKN050
      TEMPO 1312/1314 5SM SHRA SCT007 BKN019
     FM131400 VRB05KT P6SM VCTS SCT020CB BKN060
      TEMPO 1314/1318 VRB15G20KT 3SM +TSRA SCT009 BKN018CB
     FM132100 15008KT P6SM SCT025 SCT080 BKN150
     FM140300 18007KT P6SM SCT015
     FM140900 VRB03KT P6SM SCT050=

USA.gov is the U.S. government's official web portal to all federal, state and local government web resources and services.